Time;durP1;ratioP1;P1;durP2;ratioP2;P2;SDS_P1;SDS_P2;PMS_P1;PMS_P2;Temp;Humidity;BMP_temperature;BMP_pressure;BME280_temperature;BME280_humidity;BME280_pressure;Samples;Min_cycle;Max_cycle;Signal;HPM_P1;HPM_P2
2023/04/25 00:01:13;;;;;;;24.25;13.20;;;;;;;5.59;100.00;100968.16;5070801;28;20031;-47
2023/04/25 00:03:38;;;;;;;22.98;13.50;;;;;;;5.56;100.00;100970.63;5030805;28;20437;-44
2023/04/25 00:06:04;;;;;;;20.85;12.65;;;;;;;5.55;100.00;100966.25;5030754;28;20057;-48
2023/04/25 00:08:30;;;;;;;21.80;13.80;;;;;;;5.50;100.00;100978.03;5049518;28;20116;-46
2023/04/25 00:10:56;;;;;;;24.42;13.88;;;;;;;5.43;100.00;100975.53;5048326;28;20036;-47
2023/04/25 00:13:22;;;;;;;24.00;13.20;;;;;;;5.42;100.00;100973.88;5066834;28;20119;-45
2023/04/25 00:15:48;;;;;;;22.65;13.43;;;;;;;5.38;100.00;100974.66;5070826;28;20451;-45
2023/04/25 00:18:13;;;;;;;24.20;14.10;;;;;;;5.35;100.00;100987.00;5053362;28;20052;-46
2023/04/25 00:20:39;;;;;;;23.77;13.48;;;;;;;5.32;100.00;100982.06;5050562;28;20060;-46
2023/04/25 00:23:04;;;;;;;24.60;14.05;;;;;;;5.27;100.00;100982.84;5050733;28;20116;-46
2023/04/25 00:25:30;;;;;;;23.83;13.73;;;;;;;5.23;100.00;100989.13;5049155;28;20068;-47
2023/04/25 00:27:55;;;;;;;20.98;13.55;;;;;;;5.21;100.00;100991.31;5050761;28;20082;-48
2023/04/25 00:30:20;;;;;;;22.50;13.48;;;;;;;5.17;100.00;100996.50;5049473;28;20045;-52
2023/04/25 00:32:46;;;;;;;22.20;12.93;;;;;;;5.17;100.00;101001.19;5062284;28;20036;-47
2023/04/25 00:35:11;;;;;;;22.80;13.23;;;;;;;5.14;100.00;100999.81;5072955;28;20040;-45
2023/04/25 00:37:37;;;;;;;21.95;13.93;;;;;;;5.14;100.00;100997.88;5074074;28;20136;-45
2023/04/25 00:40:05;;;;;;;22.83;13.50;;;;;;;5.09;100.00;101000.59;5074209;28;20028;-44
2023/04/25 00:42:31;;;;;;;22.17;13.90;;;;;;;5.06;100.00;100992.06;5073972;28;20033;-45
2023/04/25 00:44:58;;;;;;;24.67;13.30;;;;;;;5.05;100.00;100990.44;5074047;28;20056;-45
2023/04/25 00:47:24;;;;;;;24.23;13.65;;;;;;;5.06;100.00;100981.09;5072285;28;20589;-46
2023/04/25 00:49:49;;;;;;;26.50;15.00;;;;;;;5.06;100.00;100990.16;5072691;28;20140;-45
2023/04/25 00:52:15;;;;;;;23.75;14.15;;;;;;;5.06;100.00;100984.66;5072400;28;20396;-45
2023/04/25 00:54:40;;;;;;;24.23;13.93;;;;;;;5.05;100.00;100993.16;5073917;28;20043;-44
2023/04/25 00:57:05;;;;;;;24.10;14.52;;;;;;;5.02;100.00;100989.03;5069320;28;20499;-46
2023/04/25 00:59:31;;;;;;;23.52;13.90;;;;;;;5.02;100.00;100988.22;5052328;28;20048;-46
2023/04/25 01:01:56;;;;;;;25.27;14.18;;;;;;;4.95;100.00;100988.44;5053839;28;20044;-46
2023/04/25 01:04:22;;;;;;;25.83;14.38;;;;;;;4.91;100.00;100993.63;5053615;28;20107;-46
2023/04/25 01:06:48;;;;;;;25.60;15.05;;;;;;;4.90;100.00;100999.38;5053689;28;20095;-49
2023/04/25 01:09:13;;;;;;;30.83;15.38;;;;;;;4.89;100.00;100992.25;5050254;28;20025;-45
2023/04/25 01:11:40;;;;;;;26.98;15.95;;;;;;;4.85;100.00;100994.69;5053700;28;20090;-47
2023/04/25 01:14:05;;;;;;;28.20;15.23;;;;;;;4.85;100.00;100994.69;5073761;28;20029;-44
2023/04/25 01:16:31;;;;;;;26.80;15.55;;;;;;;4.81;100.00;100991.66;5073658;28;20074;-44
2023/04/25 01:18:57;;;;;;;25.08;14.52;;;;;;;4.75;100.00;100994.63;5054906;28;20040;-45
2023/04/25 01:21:22;;;;;;;25.25;14.55;;;;;;;4.78;100.00;100999.56;5053591;28;20025;-44
2023/04/25 01:23:48;;;;;;;26.00;13.90;;;;;;;4.78;100.00;100997.66;5053610;28;20029;-46
2023/04/25 01:26:13;;;;;;;22.95;13.70;;;;;;;4.75;100.00;100995.44;5052842;28;20170;-45
2023/04/25 01:28:42;;;;;;;23.05;14.40;;;;;;;4.76;100.00;101005.31;5053181;28;20025;-46
2023/04/25 01:31:08;;;;;;;25.17;13.82;;;;;;;4.78;100.00;101005.88;5053135;28;20031;-46
2023/04/25 01:33:34;;;;;;;24.90;14.38;;;;;;;4.79;100.00;101012.16;5052946;28;20033;-45
2023/04/25 01:36:00;;;;;;;27.10;13.48;;;;;;;4.83;100.00;101016.06;5053184;28;20033;-45
2023/04/25 01:38:25;;;;;;;24.85;14.30;;;;;;;4.86;100.00;101012.78;5053080;28;20496;-45
2023/04/25 01:40:51;;;;;;;24.40;13.60;;;;;;;4.89;100.00;101014.19;5053021;28;20025;-45
2023/04/25 01:43:17;;;;;;;25.42;14.57;;;;;;;4.90;100.00;101016.66;5064673;28;20064;-45
2023/04/25 01:45:42;;;;;;;24.92;14.93;;;;;;;4.93;100.00;101009.81;5071483;28;20071;-45
2023/04/25 01:48:12;;;;;;;25.77;15.05;;;;;;;4.96;100.00;101012.03;5062376;28;20033;-45
2023/04/25 01:50:38;;;;;;;24.90;14.20;;;;;;;4.99;100.00;101003.28;5052800;28;20083;-45
2023/04/25 01:53:04;;;;;;;25.23;13.75;;;;;;;5.03;100.00;101015.34;5052910;28;20033;-46
2023/04/25 01:55:30;;;;;;;25.42;14.30;;;;;;;5.04;100.00;101007.97;5052517;28;20044;-45
2023/04/25 01:57:55;;;;;;;25.05;14.57;;;;;;;5.03;100.00;101014.53;5052585;28;20148;-46
2023/04/25 02:00:20;;;;;;;25.45;14.48;;;;;;;4.98;100.00;101005.19;5052762;28;20529;-45
2023/04/25 02:02:46;;;;;;;26.25;13.57;;;;;;;4.94;100.00;101023.25;5052648;28;20247;-45
2023/04/25 02:05:11;;;;;;;23.17;13.70;;;;;;;4.94;100.00;101025.16;5049160;28;20115;-45
2023/04/25 02:07:37;;;;;;;23.83;13.45;;;;;;;4.92;100.00;101030.06;5052588;28;20033;-45
2023/04/25 02:10:03;;;;;;;24.67;13.90;;;;;;;4.82;100.00;101034.41;5052112;28;20044;-45
2023/04/25 02:12:28;;;;;;;26.08;14.15;;;;;;;4.76;100.00;101026.44;5052514;28;20499;-45
2023/04/25 02:14:54;;;;;;;25.60;13.05;;;;;;;4.66;100.00;101021.66;5050687;28;20070;-44
2023/04/25 02:17:21;;;;;;;24.40;13.50;;;;;;;4.63;100.00;101039.47;5050498;28;20735;-43
2023/04/25 02:19:46;;;;;;;22.60;12.98;;;;;;;4.60;100.00;101031.75;5051655;28;20068;-44
2023/04/25 02:22:11;;;;;;;27.30;13.70;;;;;;;4.63;100.00;101031.25;5050103;28;20130;-45
2023/04/25 02:24:37;;;;;;;25.55;13.43;;;;;;;4.64;100.00;101034.81;5050661;28;20025;-44
2023/04/25 02:27:02;;;;;;;25.70;13.00;;;;;;;4.62;100.00;101039.75;5052101;28;20072;-45
2023/04/25 02:29:28;;;;;;;27.60;14.10;;;;;;;4.59;100.00;101043.81;5052053;28;20469;-44
2023/04/25 02:31:54;;;;;;;25.92;13.45;;;;;;;4.56;100.00;101043.50;5051853;28;20032;-45
2023/04/25 02:34:19;;;;;;;26.25;13.90;;;;;;;4.55;100.00;101039.13;5051889;28;20048;-44
2023/04/25 02:36:45;;;;;;;25.95;13.68;;;;;;;4.49;100.00;101043.72;5051652;28;20162;-45
2023/04/25 02:39:10;;;;;;;23.73;13.57;;;;;;;4.40;100.00;101037.06;5051791;28;20029;-45
2023/04/25 02:41:35;;;;;;;24.52;13.70;;;;;;;4.33;100.00;101043.59;5051772;28;20116;-45
2023/04/25 02:44:01;;;;;;;27.02;13.63;;;;;;;4.27;100.00;101039.16;5051728;28;20504;-45
2023/04/25 02:46:26;;;;;;;26.40;13.90;;;;;;;4.26;100.00;101039.41;5051555;28;20033;-44
2023/04/25 02:48:51;;;;;;;24.20;13.73;;;;;;;4.19;100.00;101039.63;5051136;28;20029;-45
2023/04/25 02:51:17;;;;;;;23.55;14.80;;;;;;;4.10;100.00;101039.25;5051228;28;20044;-44
2023/04/25 02:53:42;;;;;;;25.95;14.00;;;;;;;4.02;100.00;101039.72;5051347;28;20150;-45
2023/04/25 02:56:07;;;;;;;29.30;14.45;;;;;;;3.94;100.00;101041.00;5050764;28;20128;-46
2023/04/25 02:58:33;;;;;;;26.10;14.35;;;;;;;3.91;100.00;101038.78;5050936;28;20048;-46
2023/04/25 03:00:58;;;;;;;26.50;14.32;;;;;;;3.84;100.00;101041.72;5046333;28;20143;-46
2023/04/25 03:03:23;;;;;;;24.23;13.50;;;;;;;3.80;100.00;101043.28;5051188;28;20036;-46
2023/04/25 03:05:52;;;;;;;22.58;13.32;;;;;;;3.79;100.00;101043.56;5051315;28;20025;-45
2023/04/25 03:08:18;;;;;;;24.70;14.55;;;;;;;3.80;100.00;101040.56;5058204;28;20069;-46
2023/04/25 03:10:44;;;;;;;23.52;14.20;;;;;;;3.78;100.00;101039.97;5070864;28;20025;-46
2023/04/25 03:13:10;;;;;;;25.27;13.57;;;;;;;3.80;100.00;101029.63;5070426;28;20372;-46
2023/04/25 03:15:36;;;;;;;23.70;14.00;;;;;;;3.82;100.00;101038.41;5070730;28;20047;-45
2023/04/25 03:18:01;;;;;;;24.05;14.20;;;;;;;3.92;100.00;101045.88;5070563;28;20040;-44
2023/04/25 03:20:27;;;;;;;24.15;14.35;;;;;;;3.97;100.00;101040.50;5070852;28;20025;-44
2023/04/25 03:22:52;;;;;;;24.45;12.73;;;;;;;4.04;100.00;101049.31;5068008;28;20401;-45
2023/04/25 03:25:17;;;;;;;24.83;13.77;;;;;;;4.00;100.00;101045.47;5050873;28;20500;-45
2023/04/25 03:27:43;;;;;;;24.38;13.77;;;;;;;4.06;100.00;101049.88;5046721;28;20485;-44
2023/04/25 03:30:08;;;;;;;26.27;14.45;;;;;;;4.06;100.00;101040.88;5050834;28;20043;-45
2023/04/25 03:32:34;;;;;;;24.77;14.18;;;;;;;4.09;100.00;101036.78;5050973;28;20586;-44
2023/04/25 03:34:59;;;;;;;27.48;13.80;;;;;;;4.16;100.00;101042.88;5050886;28;20063;-47
2023/04/25 03:37:25;;;;;;;22.98;13.43;;;;;;;4.21;100.00;101051.97;5050807;28;20392;-45
2023/04/25 03:39:50;;;;;;;23.00;13.88;;;;;;;4.22;100.00;101048.16;5051152;28;20029;-47
2023/04/25 03:42:16;;;;;;;26.40;13.80;;;;;;;4.22;100.00;101052.78;5051106;28;20410;-46
2023/04/25 03:44:41;;;;;;;25.67;14.10;;;;;;;4.23;100.00;101048.97;5051024;28;20215;-47
2023/04/25 03:47:06;;;;;;;25.23;13.75;;;;;;;4.25;100.00;101046.78;5049681;28;20091;-48
2023/04/25 03:49:32;;;;;;;24.77;14.00;;;;;;;4.29;100.00;101055.31;5051061;28;20110;-47
2023/04/25 03:51:58;;;;;;;26.55;14.70;;;;;;;4.22;100.00;101048.16;5049663;28;20029;-49
2023/04/25 03:54:23;;;;;;;29.27;14.98;;;;;;;4.24;100.00;101045.13;5050546;28;20025;-45
2023/04/25 03:56:48;;;;;;;28.75;14.05;;;;;;;4.27;100.00;101049.25;5050853;28;20025;-45
2023/04/25 03:59:14;;;;;;;27.23;14.27;;;;;;;4.27;100.00;101046.53;5061405;28;20170;-45
2023/04/25 04:01:39;;;;;;;25.70;14.50;;;;;;;4.25;100.00;101046.78;5070836;28;20039;-46
2023/04/25 04:04:04;;;;;;;24.02;14.40;;;;;;;4.22;100.00;101052.78;5070489;28;20388;-44
2023/04/25 04:06:30;;;;;;;26.90;13.88;;;;;;;4.24;100.00;101058.03;5070683;28;20465;-45
2023/04/25 04:08:55;;;;;;;26.70;14.55;;;;;;;4.27;100.00;101062.97;5072517;28;20082;-45
2023/04/25 04:11:20;;;;;;;25.33;13.68;;;;;;;4.26;100.00;101058.56;5074551;28;20139;-45
2023/04/25 04:13:46;;;;;;;24.38;14.70;;;;;;;4.27;100.00;101072.03;5062271;28;20087;-45
2023/04/25 04:16:11;;;;;;;26.73;15.20;;;;;;;4.31;100.00;101075.88;5054476;28;20033;-44
2023/04/25 04:18:36;;;;;;;23.75;15.18;;;;;;;4.30;100.00;101074.22;5054457;28;20029;-44
2023/04/25 04:21:02;;;;;;;26.77;14.88;;;;;;;4.29;100.00;101079.97;5054222;28;20465;-45
2023/04/25 04:23:28;;;;;;;25.67;14.73;;;;;;;4.33;100.00;101070.16;5054135;28;20417;-44
2023/04/25 04:25:56;;;;;;;28.58;15.10;;;;;;;4.33;100.00;101072.91;5072389;28;20044;-51
2023/04/25 04:28:21;;;;;;;24.63;15.07;;;;;;;4.29;100.00;101067.13;5073844;28;20120;-44
2023/04/25 04:30:47;;;;;;;30.08;15.05;;;;;;;4.31;100.00;101069.59;5074085;28;20099;-45
2023/04/25 04:33:12;;;;;;;25.95;14.50;;;;;;;4.32;100.00;101085.75;5072445;28;20032;-44
2023/04/25 04:35:38;;;;;;;27.55;14.20;;;;;;;4.31;100.00;101078.63;5074140;28;20101;-44
2023/04/25 04:38:03;;;;;;;23.92;13.65;;;;;;;4.27;100.00;101090.34;5073919;28;20531;-44
2023/04/25 04:40:31;;;;;;;25.95;13.10;;;;;;;4.16;100.00;101092.16;5073969;28;20043;-44
2023/04/25 04:42:57;;;;;;;25.02;13.88;;;;;;;4.17;100.00;101094.63;5074038;28;20024;-44
2023/04/25 04:45:23;;;;;;;24.17;13.20;;;;;;;4.21;100.00;101098.53;5054940;28;20029;-44
2023/04/25 04:47:49;;;;;;;24.75;13.45;;;;;;;4.29;100.00;101094.50;5053973;28;20485;-45
2023/04/25 04:50:14;;;;;;;27.80;13.45;;;;;;;4.24;100.00;101099.91;5053821;28;20033;-44
2023/04/25 04:52:40;;;;;;;25.45;13.77;;;;;;;4.27;100.00;101101.31;5053769;28;20060;-45
2023/04/25 04:55:06;;;;;;;23.50;12.50;;;;;;;4.36;100.00;101097.00;5052424;28;20091;-44
2023/04/25 04:57:32;;;;;;;26.40;13.00;;;;;;;4.45;100.00;101108.34;5053660;28;20099;-45
2023/04/25 04:59:58;;;;;;;24.90;13.15;;;;;;;4.49;100.00;101104.84;5052140;28;20480;-49
2023/04/25 05:02:23;;;;;;;26.08;13.38;;;;;;;4.48;100.00;101100.44;5053492;28;20037;-47
2023/04/25 05:04:50;;;;;;;24.02;13.00;;;;;;;4.46;100.00;101119.03;5053541;28;20025;-47
2023/04/25 05:07:15;;;;;;;24.08;13.20;;;;;;;4.48;100.00;101124.28;5052047;28;20392;-45
2023/04/25 05:09:40;;;;;;;25.17;12.30;;;;;;;4.51;100.00;101129.22;5053501;28;20033;-48
2023/04/25 05:12:06;;;;;;;27.95;12.55;;;;;;;4.51;100.00;101126.47;5053370;28;20025;-46
2023/04/25 05:14:31;;;;;;;24.60;12.77;;;;;;;4.53;100.00;101127.88;5053423;28;20040;-45
2023/04/25 05:16:58;;;;;;;29.20;13.50;;;;;;;4.55;100.00;101129.53;5050919;28;20036;-44
2023/04/25 05:19:23;;;;;;;23.98;11.95;;;;;;;4.55;100.00;101140.50;5051586;28;20461;-46
2023/04/25 05:21:49;;;;;;;21.85;11.80;;;;;;;4.53;100.00;101144.31;5053442;28;20097;-45
2023/04/25 05:24:14;;;;;;;26.42;12.65;;;;;;;4.51;100.00;101152.00;5053216;28;20074;-45
2023/04/25 05:26:39;;;;;;;25.52;13.02;;;;;;;4.46;100.00;101149.19;5053001;28;20045;-44
2023/04/25 05:29:05;;;;;;;23.10;12.50;;;;;;;4.46;100.00;101149.19;5042916;28;20033;-44
2023/04/25 05:31:31;;;;;;;28.25;13.00;;;;;;;4.48;100.00;101152.50;5044028;28;20456;-53
2023/04/25 05:33:57;;;;;;;28.42;13.35;;;;;;;4.55;100.00;101159.66;5049676;28;20040;-53
2023/04/25 05:36:22;;;;;;;25.55;13.63;;;;;;;4.55;100.00;101166.00;5052641;28;20033;-45
2023/04/25 05:38:47;;;;;;;25.33;12.73;;;;;;;4.59;100.00;101155.34;5051145;28;20110;-45
2023/04/25 05:41:13;;;;;;;24.77;12.60;;;;;;;4.62;100.00;101172.09;5052612;28;20032;-45
2023/04/25 05:43:38;;;;;;;24.30;13.45;;;;;;;4.65;100.00;101165.25;5052568;28;20028;-47
2023/04/25 05:46:03;;;;;;;25.60;13.10;;;;;;;4.65;100.00;101168.00;5052760;28;20025;-46
2023/04/25 05:48:29;;;;;;;26.08;13.45;;;;;;;4.62;100.00;101166.63;5052703;28;20032;-45
2023/04/25 05:50:55;;;;;;;21.08;12.75;;;;;;;4.65;100.00;101166.09;5047891;28;20060;-45
2023/04/25 05:53:21;;;;;;;24.50;12.63;;;;;;;4.65;100.00;101174.31;5031223;28;20065;-45
2023/04/25 05:55:47;;;;;;;24.83;13.10;;;;;;;4.65;100.00;101179.81;5069670;28;20400;-45
2023/04/25 05:58:12;;;;;;;26.50;13.35;;;;;;;4.80;100.00;101181.88;5072396;28;20047;-46
2023/04/25 06:00:38;;;;;;;27.35;13.07;;;;;;;4.91;100.00;101181.97;5072006;28;20082;-46
2023/04/25 06:03:03;;;;;;;25.45;13.18;;;;;;;4.95;100.00;101186.69;5070836;28;20024;-44
2023/04/25 06:05:29;;;;;;;24.08;12.82;;;;;;;4.92;100.00;101184.47;5071732;28;20476;-45
2023/04/25 06:07:54;;;;;;;22.35;11.85;;;;;;;4.94;100.00;101186.94;5072223;28;20043;-46
2023/04/25 06:10:19;;;;;;;23.48;12.55;;;;;;;4.92;99.35;101183.59;5071272;28;20059;-47
2023/04/25 06:12:45;;;;;;;22.92;13.18;;;;;;;4.98;98.10;101193.56;5070647;28;20473;-46
2023/04/25 06:15:10;;;;;;;24.58;12.27;;;;;;;5.11;99.43;101195.03;5049551;28;20020;-49
2023/04/25 06:17:36;;;;;;;23.00;12.63;;;;;;;5.17;96.94;101194.00;5049152;28;20083;-46
2023/04/25 06:20:01;;;;;;;25.88;11.93;;;;;;;5.13;94.96;101195.63;5059950;28;20032;-50
2023/04/25 06:22:27;;;;;;;22.65;12.30;;;;;;;5.09;95.22;101195.31;5067804;28;20063;-50
2023/04/25 06:24:52;;;;;;;22.23;11.95;;;;;;;5.08;93.74;101193.66;5060320;28;20045;-47
2023/04/25 06:27:18;;;;;;;21.77;11.60;;;;;;;5.11;93.47;101200.53;5035595;28;20780;-45
2023/04/25 06:29:43;;;;;;;20.25;10.93;;;;;;;5.08;92.63;101198.28;5040734;28;20029;-48
2023/04/25 06:32:08;;;;;;;21.83;11.40;;;;;;;5.12;93.92;101189.28;5035866;28;20495;-47
2023/04/25 06:34:33;;;;;;;22.15;10.70;;;;;;;5.15;92.12;101197.00;5036438;28;20029;-47
2023/04/25 06:36:59;;;;;;;21.00;10.63;;;;;;;5.22;92.84;101194.03;5034271;28;20022;-48
2023/04/25 06:39:25;;;;;;;20.05;10.73;;;;;;;5.32;92.96;101201.53;5032648;28;20032;-43
2023/04/25 06:41:50;;;;;;;18.60;10.48;;;;;;;5.39;91.63;101204.88;5048183;28;20029;-45
2023/04/25 06:44:16;;;;;;;18.92;10.38;;;;;;;5.43;89.53;101214.25;5050340;28;20064;-45
2023/04/25 06:46:41;;;;;;;20.95;10.98;;;;;;;5.48;90.15;101218.94;5050426;28;20028;-45
2023/04/25 06:49:06;;;;;;;18.38;10.20;;;;;;;5.52;88.60;101225.56;5048763;28;20025;-46
2023/04/25 06:51:32;;;;;;;18.80;10.52;;;;;;;5.55;87.59;101214.03;5048817;28;20480;-46
2023/04/25 06:53:57;;;;;;;19.88;10.43;;;;;;;5.62;86.49;101227.56;5050033;28;20059;-44
2023/04/25 06:56:23;;;;;;;20.58;11.10;;;;;;;5.69;87.97;101233.63;5050118;28;20047;-46
2023/04/25 06:58:49;;;;;;;20.10;10.95;;;;;;;5.77;87.35;101232.31;5050150;28;20029;-48
2023/04/25 07:01:14;;;;;;;19.98;10.23;;;;;;;5.84;86.31;101237.59;5050153;28;20093;-46
2023/04/25 07:03:40;;;;;;;23.70;11.07;;;;;;;5.86;85.00;101238.13;5049887;28;20085;-46
2023/04/25 07:06:05;;;;;;;18.85;10.23;;;;;;;5.92;85.73;101237.91;5050189;28;20025;-46
2023/04/25 07:08:30;;;;;;;19.95;10.38;;;;;;;6.03;84.94;101238.84;5049997;28;20148;-51
2023/04/25 07:10:56;;;;;;;20.98;10.70;;;;;;;6.14;85.03;101238.91;5049939;28;20373;-50
2023/04/25 07:13:21;;;;;;;20.92;10.75;;;;;;;6.27;85.17;101238.41;5050074;28;20056;-47
2023/04/25 07:15:47;;;;;;;21.77;10.90;;;;;;;6.29;82.30;101247.22;5050016;28;20033;-47
2023/04/25 07:18:13;;;;;;;21.05;10.65;;;;;;;6.24;81.38;101245.25;5050062;28;20126;-46
2023/04/25 07:20:38;;;;;;;20.10;10.38;;;;;;;6.30;82.44;101248.88;5048669;28;20076;-47
2023/04/25 07:23:04;;;;;;;18.13;9.77;;;;;;;6.36;82.63;101246.97;5049788;28;20029;-50
2023/04/25 07:25:30;;;;;;;19.15;10.23;;;;;;;6.34;82.49;101247.22;5049668;28;20049;-45
2023/04/25 07:27:55;;;;;;;18.63;9.95;;;;;;;6.37;81.60;101252.19;5049216;28;20461;-47
2023/04/25 07:30:21;;;;;;;19.00;10.27;;;;;;;6.37;81.03;101254.94;5058279;28;20045;-46
2023/04/25 07:32:46;;;;;;;18.52;10.25;;;;;;;6.46;80.71;101259.91;5068320;28;20602;-47
2023/04/25 07:35:12;;;;;;;19.42;9.98;;;;;;;6.55;80.38;101270.16;5061528;28;20039;-46
2023/04/25 07:37:37;;;;;;;18.23;9.10;;;;;;;6.49;76.78;101270.38;5049768;28;20028;-49
2023/04/25 07:40:03;;;;;;;18.45;9.38;;;;;;;6.41;79.08;101266.22;5049716;28;20136;-48
2023/04/25 07:42:29;;;;;;;19.40;9.95;;;;;;;6.49;78.67;101276.69;5051150;28;20044;-46
2023/04/25 07:44:54;;;;;;;18.13;9.82;;;;;;;6.61;77.45;101278.41;5053905;28;20024;-45
2023/04/25 07:47:20;;;;;;;18.75;9.70;;;;;;;6.76;76.78;101280.38;5053804;28;20087;-49
2023/04/25 07:49:45;;;;;;;20.23;10.52;;;;;;;6.93;76.71;101300.25;5052286;28;20401;-45
2023/04/25 07:52:11;;;;;;;17.70;9.63;;;;;;;7.09;75.98;101300.28;5053577;28;20040;-46
2023/04/25 07:54:36;;;;;;;18.02;9.63;;;;;;;7.07;74.35;101297.81;5053792;28;20033;-46
2023/04/25 07:57:02;;;;;;;21.58;9.60;;;;;;;7.09;74.46;101292.00;5052422;28;20056;-47
2023/04/25 07:59:27;;;;;;;19.88;9.85;;;;;;;7.16;73.15;101303.63;5054165;28;20125;-45
2023/04/25 08:01:53;;;;;;;19.67;9.70;;;;;;;7.29;72.05;101305.00;5053794;28;20037;-46
2023/04/25 08:04:18;;;;;;;18.73;9.20;;;;;;;7.41;72.39;101297.34;5053984;28;20021;-46
2023/04/25 08:06:43;;;;;;;18.88;8.93;;;;;;;7.55;73.04;101289.34;5053768;28;20104;-49
2023/04/25 08:09:09;;;;;;;16.13;9.23;;;;;;;7.75;70.33;101301.44;5053835;28;20039;-45
2023/04/25 08:11:35;;;;;;;20.98;10.02;;;;;;;7.78;70.59;101304.50;5053884;28;20052;-46
2023/04/25 08:14:01;;;;;;;21.92;9.65;;;;;;;7.59;70.66;101301.44;5053707;28;20057;-47
2023/04/25 08:16:27;;;;;;;19.70;9.90;;;;;;;7.76;71.59;101320.47;5053512;28;20066;-46
2023/04/25 08:18:52;;;;;;;18.52;9.82;;;;;;;7.88;70.60;101311.91;5053250;28;20029;-45
2023/04/25 08:21:17;;;;;;;18.38;9.50;;;;;;;7.84;70.65;101324.56;5053407;28;20029;-45
2023/04/25 08:23:42;;;;;;;20.80;10.23;;;;;;;7.72;71.84;101315.78;5053462;28;20171;-46
2023/04/25 08:26:08;;;;;;;21.17;9.85;;;;;;;7.86;71.66;101319.63;5051857;28;20504;-45
2023/04/25 08:28:33;;;;;;;19.33;9.70;;;;;;;7.89;71.99;101321.84;5053343;28;20025;-45
2023/04/25 08:30:58;;;;;;;18.67;9.95;;;;;;;7.99;69.46;101329.25;5053430;28;20211;-47
2023/04/25 08:33:24;;;;;;;18.38;9.50;;;;;;;8.14;70.31;101322.09;5053319;28;20475;-45
2023/04/25 08:35:50;;;;;;;17.65;9.20;;;;;;;8.27;68.65;101336.13;5053298;28;20037;-46
2023/04/25 08:38:17;;;;;;;19.60;9.20;;;;;;;8.31;67.32;101333.63;5053171;28;20492;-50
2023/04/25 08:40:43;;;;;;;19.08;9.18;;;;;;;8.33;67.35;101330.59;5051625;28;20442;-47
2023/04/25 08:43:12;;;;;;;18.13;9.75;;;;;;;8.51;67.60;101341.03;5051802;28;20029;-45
2023/04/25 08:45:41;;;;;;;19.33;10.07;;;;;;;8.55;67.05;101333.88;5060618;28;20025;-45
2023/04/25 08:48:11;;;;;;;19.50;9.55;;;;;;;8.69;67.54;101331.34;5073013;28;20456;-51
2023/04/25 08:50:40;;;;;;;21.08;9.80;;;;;;;8.60;65.40;101343.25;5072786;28;20029;-46
2023/04/25 08:53:09;;;;;;;17.40;9.35;;;;;;;8.51;65.42;101346.56;5073377;28;20054;-46
2023/04/25 08:55:38;;;;;;;18.92;9.52;;;;;;;8.53;65.64;101349.06;5072216;28;20483;-46
2023/04/25 08:58:05;;;;;;;17.73;9.55;;;;;;;8.61;67.08;101354.00;5045995;28;20029;-46
2023/04/25 09:00:30;;;;;;;21.52;10.27;;;;;;;8.64;64.94;101361.72;5038833;28;20710;-46
2023/04/25 09:02:57;;;;;;;21.27;10.20;;;;;;;8.60;64.59;101366.13;5052075;28;20029;-50
2023/04/25 09:05:23;;;;;;;19.70;9.68;;;;;;;8.40;65.38;101367.00;5039988;28;20636;-47
2023/04/25 09:07:48;;;;;;;18.85;9.82;;;;;;;8.36;67.30;101386.00;5052627;28;20103;-47
2023/04/25 09:10:14;;;;;;;20.77;10.25;;;;;;;8.08;67.16;101382.72;5055819;28;20410;-45
2023/04/25 09:12:39;;;;;;;17.98;10.25;;;;;;;8.17;68.84;101391.25;5071265;28;20048;-46
2023/04/25 09:15:07;;;;;;;19.05;9.82;;;;;;;8.19;67.48;101388.22;5070801;28;20125;-46
2023/04/25 09:17:33;;;;;;;19.92;9.75;;;;;;;8.33;69.86;101389.31;5072587;28;20111;-49
2023/04/25 09:20:13;;;;;;;16.88;9.95;;;;;;;8.53;68.14;101399.50;5071993;28;20227;-47
2023/04/25 09:22:39;;;;;;;18.48;10.30;;;;;;;8.58;66.83;101402.28;5052538;28;20036;-46
2023/04/25 09:25:09;;;;;;;22.08;10.60;;;;;;;8.36;64.03;101413.56;5052935;28;20104;-44
2023/04/25 09:27:34;;;;;;;18.58;9.88;;;;;;;8.21;65.93;101428.22;5070766;28;20017;-48
2023/04/25 09:30:00;;;;;;;14.88;9.52;;;;;;;7.46;67.14;101448.72;5072183;28;20135;-45
2023/04/25 09:32:26;;;;;;;15.02;9.55;;;;;;;6.92;73.03;101447.13;5070694;28;20033;-47
2023/04/25 09:34:53;;;;;;;16.98;10.00;;;;;;;6.52;79.53;101462.25;5072400;28;20567;-50
2023/04/25 09:37:23;;;;;;;16.25;9.98;;;;;;;6.40;82.02;101451.44;5071922;28;20059;-47
2023/04/25 09:39:51;;;;;;;18.83;10.52;;;;;;;6.21;78.93;101440.84;5072264;28;20032;-46
2023/04/25 09:42:17;;;;;;;18.63;10.43;;;;;;;6.16;84.82;101439.97;5071388;28;20032;-46
2023/04/25 09:44:46;;;;;;;17.55;10.48;;;;;;;6.27;85.69;101436.25;5071744;28;20033;-48
2023/04/25 09:47:15;;;;;;;17.73;10.52;;;;;;;6.15;81.78;101432.81;5071728;28;20812;-45
2023/04/25 09:49:42;;;;;;;16.02;9.65;;;;;;;6.13;84.57;101440.53;5070906;28;20499;-47
2023/04/25 09:52:08;;;;;;;15.02;9.30;;;;;;;6.19;85.83;101434.78;5071818;28;20036;-46
2023/04/25 09:54:33;;;;;;;17.10;9.65;;;;;;;6.42;83.75;101441.03;5071604;28;20107;-45
2023/04/25 09:57:14;;;;;;;17.02;9.13;;;;;;;6.68;84.09;101438.44;5070386;28;20214;-47
2023/04/25 09:59:43;;;;;;;16.75;9.50;;;;;;;7.00;84.94;101434.78;5070301;28;20642;-47
2023/04/25 10:02:10;;;;;;;19.20;9.80;;;;;;;7.22;80.89;101429.09;5052592;28;20028;-46
2023/04/25 10:04:37;;;;;;;19.17;9.52;;;;;;;7.42;78.56;101427.53;5051405;28;20043;-47
2023/04/25 10:07:05;;;;;;;17.65;9.07;;;;;;;7.73;79.86;101436.69;5050388;28;20033;-46
2023/04/25 10:09:33;;;;;;;12.65;8.93;;;;;;;7.85;70.43;101446.63;5051280;28;20104;-46
2023/04/25 10:12:00;;;;;;;15.02;8.88;;;;;;;7.87;68.87;101428.72;5051264;28;20040;-45
2023/04/25 10:14:26;;;;;;;16.80;9.20;;;;;;;8.08;67.87;101445.28;5049583;28;20037;-48
2023/04/25 10:16:53;;;;;;;14.25;8.80;;;;;;;8.21;67.56;101433.72;5051278;28;20097;-45
2023/04/25 10:19:20;;;;;;;16.67;8.77;;;;;;;8.28;64.29;101433.41;5051055;28;20098;-45
2023/04/25 10:21:51;;;;;;;14.38;9.00;;;;;;;8.35;66.56;101414.69;5062864;28;20067;-48
2023/04/25 10:24:19;;;;;;;19.75;9.18;;;;;;;8.49;64.62;101436.19;5071059;28;20040;-46
2023/04/25 10:26:45;;;;;;;15.07;8.80;;;;;;;8.57;66.07;101422.69;5069298;28;20503;-46
2023/04/25 10:29:10;;;;;;;18.15;9.30;;;;;;;8.74;64.38;101427.06;5071423;28;20032;-46
2023/04/25 10:31:45;;;;;;;16.63;9.02;;;;;;;9.02;65.22;101416.50;5070670;28;20031;-47
2023/04/25 10:34:10;;;;;;;14.68;8.98;;;;;;;9.24;64.07;101418.88;5070791;28;20033;-45
2023/04/25 10:36:37;;;;;;;16.42;8.60;;;;;;;9.47;62.33;101417.38;5059527;28;20535;-47
2023/04/25 10:39:08;;;;;;;16.10;8.73;;;;;;;9.80;61.36;101427.97;5046939;28;20650;-46
2023/04/25 10:41:51;;;;;;;17.65;9.00;;;;;;;9.95;57.14;101425.09;5048053;28;20033;-47
2023/04/25 10:44:17;;;;;;;15.68;8.05;;;;;;;9.97;55.91;101424.81;5050806;28;20033;-48
2023/04/25 10:46:44;;;;;;;17.90;8.90;;;;;;;10.25;61.17;101417.66;5050405;28;20043;-47
2023/04/25 10:49:10;;;;;;;13.70;8.80;;;;;;;10.20;52.52;101417.72;5050555;28;20131;-48
2023/04/25 10:51:36;;;;;;;18.15;9.93;;;;;;;10.10;54.75;101421.41;5050474;28;20029;-46
2023/04/25 10:54:07;;;;;;;13.50;8.20;;;;;;;10.09;55.47;101421.66;5050366;28;20032;-47
2023/04/25 10:56:43;;;;;;;15.27;9.05;;;;;;;9.84;58.96;101456.69;5041331;28;20064;-46
2023/04/25 10:59:16;;;;;;;17.58;9.40;;;;;;;9.22;63.90;101448.69;5050292;28;20035;-46
2023/04/25 11:01:47;;;;;;;18.43;9.27;;;;;;;8.50;68.10;101457.16;5050595;28;20235;-53
2023/04/25 11:04:30;;;;;;;15.80;9.52;;;;;;;8.21;68.74;101460.44;5049023;28;20021;-47
2023/04/25 11:06:55;;;;;;;15.20;8.98;;;;;;;7.88;71.08;101479.16;5049160;28;20078;-47
2023/04/25 11:09:24;;;;;;;15.50;9.00;;;;;;;7.72;70.68;101476.34;5050527;28;20103;-45